sensor_id;sensor_type;location;lat;lon;timestamp;P1;durP1;ratioP1;P2;durP2;ratioP2
20383;SDS011;46458;50.966;7.002;2023-12-20T00:00:09;12.90;;;10.27;;
20383;SDS011;46458;50.966;7.002;2023-12-20T00:02:39;14.50;;;10.93;;
20383;SDS011;46458;50.966;7.002;2023-12-20T00:05:12;14.43;;;11.53;;
20383;SDS011;46458;50.966;7.002;2023-12-20T00:07:41;13.83;;;10.83;;
20383;SDS011;46458;50.966;7.002;2023-12-20T00:10:10;14.43;;;10.80;;
20383;SDS011;46458;50.966;7.002;2023-12-20T00:12:41;14.00;;;11.13;;
20383;SDS011;46458;50.966;7.002;2023-12-20T00:15:08;12.70;;;10.33;;
20383;SDS011;46458;50.966;7.002;2023-12-20T00:17:37;14.73;;;11.87;;
20383;SDS011;46458;50.966;7.002;2023-12-20T00:20:06;14.53;;;10.77;;
20383;SDS011;46458;50.966;7.002;2023-12-20T00:22:36;13.93;;;11.37;;
20383;SDS011;46458;50.966;7.002;2023-12-20T00:25:05;15.53;;;12.03;;
20383;SDS011;46458;50.966;7.002;2023-12-20T00:27:37;14.50;;;10.77;;
20383;SDS011;46458;50.966;7.002;2023-12-20T00:30:09;16.73;;;11.57;;
20383;SDS011;46458;50.966;7.002;2023-12-20T00:32:41;13.93;;;10.77;;
20383;SDS011;46458;50.966;7.002;2023-12-20T00:35:12;12.93;;;10.47;;
20383;SDS011;46458;50.966;7.002;2023-12-20T00:37:41;15.23;;;10.97;;
20383;SDS011;46458;50.966;7.002;2023-12-20T00:40:10;11.17;;;9.27;;
20383;SDS011;46458;50.966;7.002;2023-12-20T00:42:39;12.17;;;8.73;;
20383;SDS011;46458;50.966;7.002;2023-12-20T00:45:11;12.10;;;8.50;;
20383;SDS011;46458;50.966;7.002;2023-12-20T00:47:39;12.53;;;8.20;;
20383;SDS011;46458;50.966;7.002;2023-12-20T00:50:09;10.13;;;7.40;;
20383;SDS011;46458;50.966;7.002;2023-12-20T00:52:38;10.30;;;7.37;;
20383;SDS011;46458;50.966;7.002;2023-12-20T00:55:07;11.10;;;7.93;;
20383;SDS011;46458;50.966;7.002;2023-12-20T00:57:36;9.27;;;7.10;;
20383;SDS011;46458;50.966;7.002;2023-12-20T01:00:08;9.83;;;6.77;;
20383;SDS011;46458;50.966;7.002;2023-12-20T01:02:40;9.90;;;6.13;;
20383;SDS011;46458;50.966;7.002;2023-12-20T01:05:08;8.20;;;5.47;;
20383;SDS011;46458;50.966;7.002;2023-12-20T01:07:37;11.00;;;5.50;;
20383;SDS011;46458;50.966;7.002;2023-12-20T01:10:06;7.03;;;5.07;;
20383;SDS011;46458;50.966;7.002;2023-12-20T01:12:36;8.10;;;5.53;;
20383;SDS011;46458;50.966;7.002;2023-12-20T01:15:05;9.90;;;5.10;;
20383;SDS011;46458;50.966;7.002;2023-12-20T01:17:37;9.23;;;4.73;;
20383;SDS011;46458;50.966;7.002;2023-12-20T01:20:06;6.63;;;5.07;;
20383;SDS011;46458;50.966;7.002;2023-12-20T01:22:36;9.50;;;5.60;;
20383;SDS011;46458;50.966;7.002;2023-12-20T01:25:05;8.63;;;4.90;;
20383;SDS011;46458;50.966;7.002;2023-12-20T01:27:34;7.97;;;4.97;;
20383;SDS011;46458;50.966;7.002;2023-12-20T01:30:01;9.90;;;4.73;;
20383;SDS011;46458;50.966;7.002;2023-12-20T01:32:30;6.67;;;4.80;;
20383;SDS011;46458;50.966;7.002;2023-12-20T01:35:01;9.80;;;5.03;;
20383;SDS011;46458;50.966;7.002;2023-12-20T01:37:30;8.20;;;4.47;;
20383;SDS011;46458;50.966;7.002;2023-12-20T01:39:59;8.83;;;4.60;;
20383;SDS011;46458;50.966;7.002;2023-12-20T01:42:28;8.07;;;5.33;;
20383;SDS011;46458;50.966;7.002;2023-12-20T01:44:57;10.23;;;5.40;;
20383;SDS011;46458;50.966;7.002;2023-12-20T01:47:26;12.03;;;6.17;;
20383;SDS011;46458;50.966;7.002;2023-12-20T01:49:55;10.47;;;6.57;;
20383;SDS011;46458;50.966;7.002;2023-12-20T01:52:27;11.90;;;6.97;;
20383;SDS011;46458;50.966;7.002;2023-12-20T01:54:56;16.17;;;8.70;;
20383;SDS011;46458;50.966;7.002;2023-12-20T01:57:28;11.83;;;8.10;;
20383;SDS011;46458;50.966;7.002;2023-12-20T01:59:57;19.57;;;10.33;;
20383;SDS011;46458;50.966;7.002;2023-12-20T02:02:26;14.77;;;10.47;;
20383;SDS011;46458;50.966;7.002;2023-12-20T02:04:56;18.47;;;10.40;;
20383;SDS011;46458;50.966;7.002;2023-12-20T02:07:28;16.13;;;10.43;;
20383;SDS011;46458;50.966;7.002;2023-12-20T02:09:58;17.30;;;10.23;;
20383;SDS011;46458;50.966;7.002;2023-12-20T02:12:27;13.70;;;10.47;;
20383;SDS011;46458;50.966;7.002;2023-12-20T02:14:56;16.27;;;10.23;;
20383;SDS011;46458;50.966;7.002;2023-12-20T02:17:25;15.60;;;11.17;;
20383;SDS011;46458;50.966;7.002;2023-12-20T02:19:55;19.10;;;11.13;;
20383;SDS011;46458;50.966;7.002;2023-12-20T02:22:26;15.17;;;10.37;;
20383;SDS011;46458;50.966;7.002;2023-12-20T02:24:55;14.43;;;10.93;;
20383;SDS011;46458;50.966;7.002;2023-12-20T02:27:24;16.50;;;10.57;;
20383;SDS011;46458;50.966;7.002;2023-12-20T02:29:52;17.23;;;9.00;;
20383;SDS011;46458;50.966;7.002;2023-12-20T02:32:21;17.83;;;9.83;;
20383;SDS011;46458;50.966;7.002;2023-12-20T02:34:52;17.07;;;8.57;;
20383;SDS011;46458;50.966;7.002;2023-12-20T02:37:21;15.80;;;7.33;;
20383;SDS011;46458;50.966;7.002;2023-12-20T02:39:53;14.37;;;6.80;;
20383;SDS011;46458;50.966;7.002;2023-12-20T02:42:22;15.53;;;6.40;;
20383;SDS011;46458;50.966;7.002;2023-12-20T02:44:50;15.03;;;5.87;;
20383;SDS011;46458;50.966;7.002;2023-12-20T02:47:21;13.17;;;5.00;;
20383;SDS011;46458;50.966;7.002;2023-12-20T02:49:50;11.97;;;5.40;;
20383;SDS011;46458;50.966;7.002;2023-12-20T02:52:19;14.97;;;5.80;;
20383;SDS011;46458;50.966;7.002;2023-12-20T02:54:48;16.13;;;5.37;;
20383;SDS011;46458;50.966;7.002;2023-12-20T02:57:19;18.63;;;5.27;;
20383;SDS011;46458;50.966;7.002;2023-12-20T02:59:48;11.80;;;4.73;;
20383;SDS011;46458;50.966;7.002;2023-12-20T03:02:17;12.77;;;6.13;;
20383;SDS011;46458;50.966;7.002;2023-12-20T03:04:46;18.70;;;6.73;;
20383;SDS011;46458;50.966;7.002;2023-12-20T03:07:15;8.30;;;4.03;;
20383;SDS011;46458;50.966;7.002;2023-12-20T03:09:43;13.93;;;3.60;;
20383;SDS011;46458;50.966;7.002;2023-12-20T03:12:12;13.77;;;4.00;;
20383;SDS011;46458;50.966;7.002;2023-12-20T03:14:44;10.80;;;3.83;;
20383;SDS011;46458;50.966;7.002;2023-12-20T03:17:16;11.83;;;3.53;;
20383;SDS011;46458;50.966;7.002;2023-12-20T03:19:46;14.10;;;3.53;;
20383;SDS011;46458;50.966;7.002;2023-12-20T03:22:15;8.53;;;2.50;;
20383;SDS011;46458;50.966;7.002;2023-12-20T03:24:43;14.53;;;3.40;;
20383;SDS011;46458;50.966;7.002;2023-12-20T03:27:12;12.50;;;3.00;;
20383;SDS011;46458;50.966;7.002;2023-12-20T03:29:44;9.63;;;2.87;;
20383;SDS011;46458;50.966;7.002;2023-12-20T03:32:13;12.70;;;2.77;;
20383;SDS011;46458;50.966;7.002;2023-12-20T03:34:42;11.33;;;2.50;;
20383;SDS011;46458;50.966;7.002;2023-12-20T03:37:10;13.80;;;3.53;;
20383;SDS011;46458;50.966;7.002;2023-12-20T03:39:39;10.57;;;2.60;;
20383;SDS011;46458;50.966;7.002;2023-12-20T03:42:08;14.40;;;3.23;;
20383;SDS011;46458;50.966;7.002;2023-12-20T03:44:38;8.20;;;2.67;;
20383;SDS011;46458;50.966;7.002;2023-12-20T03:47:10;10.37;;;3.27;;
20383;SDS011;46458;50.966;7.002;2023-12-20T03:49:39;10.07;;;3.00;;
20383;SDS011;46458;50.966;7.002;2023-12-20T03:52:07;7.63;;;2.73;;
20383;SDS011;46458;50.966;7.002;2023-12-20T03:54:36;9.37;;;2.73;;
20383;SDS011;46458;50.966;7.002;2023-12-20T03:57:05;11.43;;;3.10;;
20383;SDS011;46458;50.966;7.002;2023-12-20T03:59:34;10.30;;;2.73;;
20383;SDS011;46458;50.966;7.002;2023-12-20T04:02:04;6.67;;;2.70;;
20383;SDS011;46458;50.966;7.002;2023-12-20T04:04:35;10.97;;;2.73;;
20383;SDS011;46458;50.966;7.002;2023-12-20T04:07:07;12.70;;;3.10;;
20383;SDS011;46458;50.966;7.002;2023-12-20T04:09:36;13.47;;;3.27;;
20383;SDS011;46458;50.966;7.002;2023-12-20T04:12:05;10.80;;;2.90;;
20383;SDS011;46458;50.966;7.002;2023-12-20T04:14:34;10.03;;;2.57;;
20383;SDS011;46458;50.966;7.002;2023-12-20T04:17:03;7.93;;;2.70;;
20383;SDS011;46458;50.966;7.002;2023-12-20T04:19:35;9.57;;;2.80;;
20383;SDS011;46458;50.966;7.002;2023-12-20T04:22:03;9.17;;;2.90;;
20383;SDS011;46458;50.966;7.002;2023-12-20T04:24:32;17.33;;;3.70;;
20383;SDS011;46458;50.966;7.002;2023-12-20T04:27:01;10.53;;;3.10;;
20383;SDS011;46458;50.966;7.002;2023-12-20T04:29:33;11.77;;;3.30;;
20383;SDS011;46458;50.966;7.002;2023-12-20T04:32:02;10.00;;;3.40;;
20383;SDS011;46458;50.966;7.002;2023-12-20T04:34:32;12.63;;;3.50;;
20383;SDS011;46458;50.966;7.002;2023-12-20T04:37:03;13.43;;;3.20;;
20383;SDS011;46458;50.966;7.002;2023-12-20T04:39:32;11.07;;;3.73;;
20383;SDS011;46458;50.966;7.002;2023-12-20T04:42:01;13.77;;;3.43;;
20383;SDS011;46458;50.966;7.002;2023-12-20T04:44:30;10.17;;;3.20;;
20383;SDS011;46458;50.966;7.002;2023-12-20T04:46:59;11.83;;;3.43;;
20383;SDS011;46458;50.966;7.002;2023-12-20T04:49:28;10.43;;;3.20;;
20383;SDS011;46458;50.966;7.002;2023-12-20T04:52:00;12.93;;;3.87;;
20383;SDS011;46458;50.966;7.002;2023-12-20T04:54:29;13.67;;;3.53;;
20383;SDS011;46458;50.966;7.002;2023-12-20T04:56:57;10.40;;;3.73;;
20383;SDS011;46458;50.966;7.002;2023-12-20T04:59:26;16.50;;;4.47;;
20383;SDS011;46458;50.966;7.002;2023-12-20T05:01:55;12.30;;;3.33;;
20383;SDS011;46458;50.966;7.002;2023-12-20T05:04:24;11.47;;;4.00;;
20383;SDS011;46458;50.966;7.002;2023-12-20T05:06:53;14.30;;;3.80;;
20383;SDS011;46458;50.966;7.002;2023-12-20T05:09:24;11.20;;;3.50;;
20383;SDS011;46458;50.966;7.002;2023-12-20T05:11:53;13.27;;;3.23;;
20383;SDS011;46458;50.966;7.002;2023-12-20T05:14:22;11.70;;;3.60;;
20383;SDS011;46458;50.966;7.002;2023-12-20T05:16:50;15.60;;;4.03;;
20383;SDS011;46458;50.966;7.002;2023-12-20T05:19:19;11.07;;;3.63;;
20383;SDS011;46458;50.966;7.002;2023-12-20T05:21:48;8.57;;;3.90;;
20383;SDS011;46458;50.966;7.002;2023-12-20T05:24:17;12.00;;;4.03;;
20383;SDS011;46458;50.966;7.002;2023-12-20T05:26:48;11.30;;;4.03;;
20383;SDS011;46458;50.966;7.002;2023-12-20T05:29:17;14.83;;;3.93;;
20383;SDS011;46458;50.966;7.002;2023-12-20T05:31:46;14.30;;;4.40;;
20383;SDS011;46458;50.966;7.002;2023-12-20T05:34:15;10.53;;;4.17;;
20383;SDS011;46458;50.966;7.002;2023-12-20T05:36:44;15.73;;;4.23;;
20383;SDS011;46458;50.966;7.002;2023-12-20T05:39:13;13.80;;;3.83;;
20383;SDS011;46458;50.966;7.002;2023-12-20T05:41:42;11.37;;;4.10;;
20383;SDS011;46458;50.966;7.002;2023-12-20T05:44:13;12.47;;;3.67;;
20383;SDS011;46458;50.966;7.002;2023-12-20T05:46:42;15.30;;;4.43;;
20383;SDS011;46458;50.966;7.002;2023-12-20T05:49:11;13.93;;;3.97;;
20383;SDS011;46458;50.966;7.002;2023-12-20T05:51:40;14.93;;;4.43;;
20383;SDS011;46458;50.966;7.002;2023-12-20T05:54:11;11.33;;;4.00;;
20383;SDS011;46458;50.966;7.002;2023-12-20T05:56:40;11.07;;;3.90;;
20383;SDS011;46458;50.966;7.002;2023-12-20T05:59:08;12.93;;;4.13;;
20383;SDS011;46458;50.966;7.002;2023-12-20T06:01:40;18.00;;;4.90;;
20383;SDS011;46458;50.966;7.002;2023-12-20T06:04:09;15.33;;;4.00;;
20383;SDS011;46458;50.966;7.002;2023-12-20T06:06:41;11.80;;;4.10;;
20383;SDS011;46458;50.966;7.002;2023-12-20T06:09:10;11.50;;;4.17;;
20383;SDS011;46458;50.966;7.002;2023-12-20T06:11:40;15.10;;;3.67;;
20383;SDS011;46458;50.966;7.002;2023-12-20T06:14:09;12.87;;;4.20;;
20383;SDS011;46458;50.966;7.002;2023-12-20T06:16:40;12.97;;;3.57;;
20383;SDS011;46458;50.966;7.002;2023-12-20T06:19:10;15.23;;;4.63;;
20383;SDS011;46458;50.966;7.002;2023-12-20T06:21:39;14.07;;;4.53;;
20383;SDS011;46458;50.966;7.002;2023-12-20T06:24:08;14.47;;;4.13;;
20383;SDS011;46458;50.966;7.002;2023-12-20T06:26:37;10.27;;;3.87;;
20383;SDS011;46458;50.966;7.002;2023-12-20T06:29:05;14.27;;;4.10;;
20383;SDS011;46458;50.966;7.002;2023-12-20T06:31:34;13.80;;;3.87;;
20383;SDS011;46458;50.966;7.002;2023-12-20T06:34:06;11.00;;;4.13;;
20383;SDS011;46458;50.966;7.002;2023-12-20T06:36:35;16.47;;;4.30;;
20383;SDS011;46458;50.966;7.002;2023-12-20T06:39:04;15.13;;;4.10;;
20383;SDS011;46458;50.966;7.002;2023-12-20T06:41:34;15.30;;;4.77;;
20383;SDS011;46458;50.966;7.002;2023-12-20T06:44:03;8.80;;;3.40;;
20383;SDS011;46458;50.966;7.002;2023-12-20T06:46:32;15.03;;;4.10;;
20383;SDS011;46458;50.966;7.002;2023-12-20T06:49:00;14.20;;;4.40;;
20383;SDS011;46458;50.966;7.002;2023-12-20T06:51:32;9.53;;;4.13;;
20383;SDS011;46458;50.966;7.002;2023-12-20T06:54:00;18.67;;;3.83;;
20383;SDS011;46458;50.966;7.002;2023-12-20T06:56:29;18.37;;;4.37;;
20383;SDS011;46458;50.966;7.002;2023-12-20T06:58:58;15.10;;;4.60;;
20383;SDS011;46458;50.966;7.002;2023-12-20T07:01:27;17.97;;;4.27;;
20383;SDS011;46458;50.966;7.002;2023-12-20T07:03:56;11.80;;;4.77;;
20383;SDS011;46458;50.966;7.002;2023-12-20T07:06:25;14.73;;;4.30;;
20383;SDS011;46458;50.966;7.002;2023-12-20T07:08:56;18.80;;;4.30;;
20383;SDS011;46458;50.966;7.002;2023-12-20T07:11:25;17.07;;;4.20;;
20383;SDS011;46458;50.966;7.002;2023-12-20T07:13:54;15.50;;;4.20;;
20383;SDS011;46458;50.966;7.002;2023-12-20T07:16:23;13.83;;;3.87;;
20383;SDS011;46458;50.966;7.002;2023-12-20T07:18:52;10.50;;;3.47;;
20383;SDS011;46458;50.966;7.002;2023-12-20T07:21:22;5.63;;;3.13;;
20383;SDS011;46458;50.966;7.002;2023-12-20T07:23:51;16.30;;;3.80;;
20383;SDS011;46458;50.966;7.002;2023-12-20T07:26:22;16.13;;;3.83;;
20383;SDS011;46458;50.966;7.002;2023-12-20T07:28:51;12.40;;;4.03;;
20383;SDS011;46458;50.966;7.002;2023-12-20T07:31:20;10.90;;;3.50;;
20383;SDS011;46458;50.966;7.002;2023-12-20T07:33:49;18.63;;;3.97;;
20383;SDS011;46458;50.966;7.002;2023-12-20T07:36:19;14.37;;;4.07;;
20383;SDS011;46458;50.966;7.002;2023-12-20T07:38:47;15.67;;;4.00;;
20383;SDS011;46458;50.966;7.002;2023-12-20T07:41:16;11.73;;;4.13;;
20383;SDS011;46458;50.966;7.002;2023-12-20T07:43:49;15.70;;;4.20;;
20383;SDS011;46458;50.966;7.002;2023-12-20T07:46:19;12.57;;;3.83;;
20383;SDS011;46458;50.966;7.002;2023-12-20T07:48:50;11.23;;;4.43;;
20383;SDS011;46458;50.966;7.002;2023-12-20T07:51:19;15.67;;;4.10;;
20383;SDS011;46458;50.966;7.002;2023-12-20T07:53:48;14.50;;;4.63;;
20383;SDS011;46458;50.966;7.002;2023-12-20T07:56:17;14.60;;;4.80;;
20383;SDS011;46458;50.966;7.002;2023-12-20T07:58:50;12.63;;;4.90;;
20383;SDS011;46458;50.966;7.002;2023-12-20T08:01:18;16.03;;;4.77;;
20383;SDS011;46458;50.966;7.002;2023-12-20T08:03:48;18.67;;;5.47;;
20383;SDS011;46458;50.966;7.002;2023-12-20T08:06:17;13.90;;;4.90;;
20383;SDS011;46458;50.966;7.002;2023-12-20T08:08:46;11.97;;;4.60;;
20383;SDS011;46458;50.966;7.002;2023-12-20T08:11:15;12.60;;;4.37;;
20383;SDS011;46458;50.966;7.002;2023-12-20T08:13:44;11.27;;;4.80;;
20383;SDS011;46458;50.966;7.002;2023-12-20T08:16:16;13.57;;;5.07;;
20383;SDS011;46458;50.966;7.002;2023-12-20T08:18:45;18.93;;;4.97;;
20383;SDS011;46458;50.966;7.002;2023-12-20T08:21:15;12.67;;;4.70;;
20383;SDS011;46458;50.966;7.002;2023-12-20T08:23:45;11.67;;;4.57;;
20383;SDS011;46458;50.966;7.002;2023-12-20T08:26:18;15.63;;;5.07;;
20383;SDS011;46458;50.966;7.002;2023-12-20T08:28:49;15.87;;;5.00;;
20383;SDS011;46458;50.966;7.002;2023-12-20T08:31:21;17.17;;;4.83;;
20383;SDS011;46458;50.966;7.002;2023-12-20T08:33:50;10.13;;;3.87;;
20383;SDS011;46458;50.966;7.002;2023-12-20T08:36:19;8.80;;;3.90;;
20383;SDS011;46458;50.966;7.002;2023-12-20T08:38:48;14.53;;;4.40;;
20383;SDS011;46458;50.966;7.002;2023-12-20T08:41:17;13.43;;;4.57;;
20383;SDS011;46458;50.966;7.002;2023-12-20T08:43:46;16.90;;;4.60;;
20383;SDS011;46458;50.966;7.002;2023-12-20T08:46:16;14.43;;;4.40;;
20383;SDS011;46458;50.966;7.002;2023-12-20T08:48:47;10.43;;;4.17;;
20383;SDS011;46458;50.966;7.002;2023-12-20T08:51:16;15.27;;;5.10;;
20383;SDS011;46458;50.966;7.002;2023-12-20T08:53:46;13.77;;;4.83;;
20383;SDS011;46458;50.966;7.002;2023-12-20T08:56:15;10.67;;;4.27;;
20383;SDS011;46458;50.966;7.002;2023-12-20T08:58:44;18.07;;;4.73;;
20383;SDS011;46458;50.966;7.002;2023-12-20T09:01:14;12.60;;;3.93;;
20383;SDS011;46458;50.966;7.002;2023-12-20T09:03:42;12.70;;;4.43;;
20383;SDS011;46458;50.966;7.002;2023-12-20T09:06:14;12.17;;;3.90;;
20383;SDS011;46458;50.966;7.002;2023-12-20T09:08:43;17.93;;;4.00;;
20383;SDS011;46458;50.966;7.002;2023-12-20T09:11:12;11.23;;;5.03;;
20383;SDS011;46458;50.966;7.002;2023-12-20T09:13:42;13.70;;;4.23;;
20383;SDS011;46458;50.966;7.002;2023-12-20T09:16:11;9.63;;;3.83;;
20383;SDS011;46458;50.966;7.002;2023-12-20T09:18:41;14.97;;;3.73;;
20383;SDS011;46458;50.966;7.002;2023-12-20T09:21:10;12.00;;;3.80;;
20383;SDS011;46458;50.966;7.002;2023-12-20T09:23:41;14.50;;;4.13;;
20383;SDS011;46458;50.966;7.002;2023-12-20T09:26:12;12.23;;;3.13;;
20383;SDS011;46458;50.966;7.002;2023-12-20T09:28:41;12.17;;;3.93;;
20383;SDS011;46458;50.966;7.002;2023-12-20T09:31:10;13.60;;;3.87;;
20383;SDS011;46458;50.966;7.002;2023-12-20T09:33:39;7.83;;;3.60;;
20383;SDS011;46458;50.966;7.002;2023-12-20T09:36:08;12.97;;;3.77;;
20383;SDS011;46458;50.966;7.002;2023-12-20T09:38:37;9.10;;;3.43;;
20383;SDS011;46458;50.966;7.002;2023-12-20T09:41:08;13.80;;;3.70;;
20383;SDS011;46458;50.966;7.002;2023-12-20T09:43:37;13.57;;;3.87;;
20383;SDS011;46458;50.966;7.002;2023-12-20T09:46:08;11.33;;;3.27;;
20383;SDS011;46458;50.966;7.002;2023-12-20T09:48:40;10.33;;;3.70;;
20383;SDS011;46458;50.966;7.002;2023-12-20T09:51:11;12.70;;;3.53;;
20383;SDS011;46458;50.966;7.002;2023-12-20T09:53:40;8.30;;;3.07;;
20383;SDS011;46458;50.966;7.002;2023-12-20T09:56:13;11.97;;;3.17;;
20383;SDS011;46458;50.966;7.002;2023-12-20T09:58:43;20.57;;;3.90;;
20383;SDS011;46458;50.966;7.002;2023-12-20T10:01:12;7.73;;;3.17;;
20383;SDS011;46458;50.966;7.002;2023-12-20T10:03:42;9.27;;;3.87;;
20383;SDS011;46458;50.966;7.002;2023-12-20T10:06:12;10.70;;;3.53;;
20383;SDS011;46458;50.966;7.002;2023-12-20T10:08:41;9.87;;;3.50;;
20383;SDS011;46458;50.966;7.002;2023-12-20T10:11:13;10.70;;;3.70;;
20383;SDS011;46458;50.966;7.002;2023-12-20T10:13:42;10.00;;;3.23;;
20383;SDS011;46458;50.966;7.002;2023-12-20T10:16:12;11.17;;;3.07;;
20383;SDS011;46458;50.966;7.002;2023-12-20T10:18:40;12.37;;;3.67;;
20383;SDS011;46458;50.966;7.002;2023-12-20T10:21:09;10.43;;;3.33;;
20383;SDS011;46458;50.966;7.002;2023-12-20T10:23:39;15.77;;;4.03;;
20383;SDS011;46458;50.966;7.002;2023-12-20T10:26:08;12.40;;;3.50;;
20383;SDS011;46458;50.966;7.002;2023-12-20T10:28:40;10.53;;;3.60;;
20383;SDS011;46458;50.966;7.002;2023-12-20T10:31:09;11.63;;;2.87;;
20383;SDS011;46458;50.966;7.002;2023-12-20T10:33:38;8.53;;;3.43;;
20383;SDS011;46458;50.966;7.002;2023-12-20T10:36:09;8.23;;;3.13;;
20383;SDS011;46458;50.966;7.002;2023-12-20T10:38:38;10.47;;;2.67;;
20383;SDS011;46458;50.966;7.002;2023-12-20T10:41:10;10.80;;;3.37;;
20383;SDS011;46458;50.966;7.002;2023-12-20T10:43:45;9.53;;;3.00;;
20383;SDS011;46458;50.966;7.002;2023-12-20T10:46:14;15.80;;;3.50;;
20383;SDS011;46458;50.966;7.002;2023-12-20T10:48:44;9.90;;;3.57;;
20383;SDS011;46458;50.966;7.002;2023-12-20T10:51:17;14.47;;;4.30;;
20383;SDS011;46458;50.966;7.002;2023-12-20T10:53:46;8.97;;;3.33;;
20383;SDS011;46458;50.966;7.002;2023-12-20T10:56:16;13.70;;;3.53;;
20383;SDS011;46458;50.966;7.002;2023-12-20T10:58:49;11.80;;;2.87;;
20383;SDS011;46458;50.966;7.002;2023-12-20T11:01:18;15.00;;;3.37;;
20383;SDS011;46458;50.966;7.002;2023-12-20T11:03:48;13.43;;;3.50;;
20383;SDS011;46458;50.966;7.002;2023-12-20T11:06:26;10.57;;;3.77;;
20383;SDS011;46458;50.966;7.002;2023-12-20T11:08:58;8.83;;;3.33;;
20383;SDS011;46458;50.966;7.002;2023-12-20T11:11:40;13.50;;;2.73;;
20383;SDS011;46458;50.966;7.002;2023-12-20T11:14:23;9.80;;;2.83;;
20383;SDS011;46458;50.966;7.002;2023-12-20T11:17:05;10.40;;;3.37;;
20383;SDS011;46458;50.966;7.002;2023-12-20T11:19:36;14.47;;;3.20;;
20383;SDS011;46458;50.966;7.002;2023-12-20T11:22:06;13.17;;;3.53;;
20383;SDS011;46458;50.966;7.002;2023-12-20T11:24:38;11.07;;;3.70;;
20383;SDS011;46458;50.966;7.002;2023-12-20T11:27:13;10.13;;;3.40;;
20383;SDS011;46458;50.966;7.002;2023-12-20T11:29:45;8.67;;;3.20;;
20383;SDS011;46458;50.966;7.002;2023-12-20T11:32:29;7.57;;;3.20;;
20383;SDS011;46458;50.966;7.002;2023-12-20T11:34:59;12.17;;;3.40;;
20383;SDS011;46458;50.966;7.002;2023-12-20T11:37:29;10.63;;;3.60;;
20383;SDS011;46458;50.966;7.002;2023-12-20T11:40:00;8.23;;;3.23;;
20383;SDS011;46458;50.966;7.002;2023-12-20T11:42:32;9.60;;;2.80;;
20383;SDS011;46458;50.966;7.002;2023-12-20T11:45:04;12.20;;;3.23;;
20383;SDS011;46458;50.966;7.002;2023-12-20T11:47:36;10.60;;;3.00;;
20383;SDS011;46458;50.966;7.002;2023-12-20T11:50:06;13.20;;;3.67;;
20383;SDS011;46458;50.966;7.002;2023-12-20T11:52:35;15.13;;;3.17;;
20383;SDS011;46458;50.966;7.002;2023-12-20T11:55:04;9.93;;;3.67;;
20383;SDS011;46458;50.966;7.002;2023-12-20T11:57:34;8.77;;;3.07;;
20383;SDS011;46458;50.966;7.002;2023-12-20T12:00:07;8.40;;;3.27;;
20383;SDS011;46458;50.966;7.002;2023-12-20T12:02:39;10.50;;;2.80;;
20383;SDS011;46458;50.966;7.002;2023-12-20T12:05:07;11.23;;;3.00;;
20383;SDS011;46458;50.966;7.002;2023-12-20T12:07:36;8.23;;;2.93;;
20383;SDS011;46458;50.966;7.002;2023-12-20T12:10:06;10.50;;;3.13;;
20383;SDS011;46458;50.966;7.002;2023-12-20T12:12:35;11.03;;;2.87;;
20383;SDS011;46458;50.966;7.002;2023-12-20T12:15:10;11.20;;;3.30;;
20383;SDS011;46458;50.966;7.002;2023-12-20T12:17:39;10.60;;;3.20;;
20383;SDS011;46458;50.966;7.002;2023-12-20T12:20:08;11.20;;;3.40;;
20383;SDS011;46458;50.966;7.002;2023-12-20T12:22:37;14.77;;;3.30;;
20383;SDS011;46458;50.966;7.002;2023-12-20T12:25:10;12.13;;;3.27;;
20383;SDS011;46458;50.966;7.002;2023-12-20T12:27:39;10.33;;;3.60;;
20383;SDS011;46458;50.966;7.002;2023-12-20T12:30:11;8.83;;;3.30;;
20383;SDS011;46458;50.966;7.002;2023-12-20T12:32:40;14.77;;;3.47;;
20383;SDS011;46458;50.966;7.002;2023-12-20T12:35:09;7.47;;;3.33;;
20383;SDS011;46458;50.966;7.002;2023-12-20T12:37:39;10.20;;;3.23;;
20383;SDS011;46458;50.966;7.002;2023-12-20T12:40:09;11.87;;;3.50;;
20383;SDS011;46458;50.966;7.002;2023-12-20T12:42:39;11.23;;;4.07;;
20383;SDS011;46458;50.966;7.002;2023-12-20T12:45:12;12.97;;;3.67;;
20383;SDS011;46458;50.966;7.002;2023-12-20T12:47:41;6.80;;;3.37;;
20383;SDS011;46458;50.966;7.002;2023-12-20T12:50:10;15.60;;;3.67;;
20383;SDS011;46458;50.966;7.002;2023-12-20T12:52:39;12.73;;;3.60;;
20383;SDS011;46458;50.966;7.002;2023-12-20T12:55:07;16.00;;;3.77;;
20383;SDS011;46458;50.966;7.002;2023-12-20T12:57:36;11.30;;;3.40;;
20383;SDS011;46458;50.966;7.002;2023-12-20T13:00:06;9.07;;;3.37;;
20383;SDS011;46458;50.966;7.002;2023-12-20T13:02:39;9.30;;;3.73;;
20383;SDS011;46458;50.966;7.002;2023-12-20T13:05:09;9.00;;;3.70;;
20383;SDS011;46458;50.966;7.002;2023-12-20T13:07:38;13.00;;;3.80;;
20383;SDS011;46458;50.966;7.002;2023-12-20T13:10:10;12.77;;;3.53;;
20383;SDS011;46458;50.966;7.002;2023-12-20T13:12:41;10.17;;;3.20;;
20383;SDS011;46458;50.966;7.002;2023-12-20T13:15:10;11.03;;;3.60;;
20383;SDS011;46458;50.966;7.002;2023-12-20T13:17:42;14.90;;;4.00;;
20383;SDS011;46458;50.966;7.002;2023-12-20T13:20:11;9.87;;;4.13;;
20383;SDS011;46458;50.966;7.002;2023-12-20T13:22:40;7.67;;;3.80;;
20383;SDS011;46458;50.966;7.002;2023-12-20T13:25:09;12.83;;;3.63;;
20383;SDS011;46458;50.966;7.002;2023-12-20T13:27:38;6.77;;;3.57;;
20383;SDS011;46458;50.966;7.002;2023-12-20T13:30:07;11.03;;;3.87;;
20383;SDS011;46458;50.966;7.002;2023-12-20T13:32:36;12.73;;;3.73;;
20383;SDS011;46458;50.966;7.002;2023-12-20T13:35:08;9.23;;;3.60;;
20383;SDS011;46458;50.966;7.002;2023-12-20T13:37:37;8.30;;;3.73;;
20383;SDS011;46458;50.966;7.002;2023-12-20T13:40:10;10.40;;;3.83;;
20383;SDS011;46458;50.966;7.002;2023-12-20T13:42:39;14.60;;;4.00;;
20383;SDS011;46458;50.966;7.002;2023-12-20T13:45:08;12.57;;;3.57;;
20383;SDS011;46458;50.966;7.002;2023-12-20T13:47:37;14.83;;;3.60;;
20383;SDS011;46458;50.966;7.002;2023-12-20T13:50:09;9.67;;;3.83;;
20383;SDS011;46458;50.966;7.002;2023-12-20T13:52:38;7.80;;;3.33;;
20383;SDS011;46458;50.966;7.002;2023-12-20T13:55:07;9.43;;;3.33;;
20383;SDS011;46458;50.966;7.002;2023-12-20T13:57:37;7.13;;;3.40;;
20383;SDS011;46458;50.966;7.002;2023-12-20T14:00:07;8.57;;;3.40;;
20383;SDS011;46458;50.966;7.002;2023-12-20T14:02:40;10.53;;;3.53;;
20383;SDS011;46458;50.966;7.002;2023-12-20T14:05:12;9.30;;;3.40;;
20383;SDS011;46458;50.966;7.002;2023-12-20T14:07:42;6.83;;;2.90;;
20383;SDS011;46458;50.966;7.002;2023-12-20T14:10:12;8.17;;;3.30;;
20383;SDS011;46458;50.966;7.002;2023-12-20T14:12:41;7.30;;;3.00;;
20383;SDS011;46458;50.966;7.002;2023-12-20T14:15:11;13.00;;;3.40;;
20383;SDS011;46458;50.966;7.002;2023-12-20T14:17:40;6.93;;;3.07;;
20383;SDS011;46458;50.966;7.002;2023-12-20T14:20:12;9.53;;;3.40;;
20383;SDS011;46458;50.966;7.002;2023-12-20T14:22:41;8.30;;;4.07;;
20383;SDS011;46458;50.966;7.002;2023-12-20T14:25:11;8.67;;;3.23;;
20383;SDS011;46458;50.966;7.002;2023-12-20T14:27:42;8.37;;;4.10;;
20383;SDS011;46458;50.966;7.002;2023-12-20T14:30:12;6.03;;;3.23;;
20383;SDS011;46458;50.966;7.002;2023-12-20T14:32:42;6.23;;;3.00;;
20383;SDS011;46458;50.966;7.002;2023-12-20T14:35:14;10.73;;;3.47;;
20383;SDS011;46458;50.966;7.002;2023-12-20T14:37:45;8.97;;;3.83;;
20383;SDS011;46458;50.966;7.002;2023-12-20T14:40:15;9.33;;;3.30;;
20383;SDS011;46458;50.966;7.002;2023-12-20T14:42:44;8.87;;;3.40;;
20383;SDS011;46458;50.966;7.002;2023-12-20T14:45:14;7.67;;;3.30;;
20383;SDS011;46458;50.966;7.002;2023-12-20T14:47:43;4.50;;;3.03;;
20383;SDS011;46458;50.966;7.002;2023-12-20T14:50:15;8.33;;;3.20;;